Kezdőlap
METAR-TAF:

METAR-TAF

Repülőterek :

Mankayane, Szváziföld

Musi clinic

földrajzi szélesség: 26-43-20S, földrajzi hosszúság: 30-54-44E, magasság: 956 m

Jelenlegi meteorológiai megfigyelések

A jelentés 1 órával és 3 perccel ezelõtt készült, 13:00 UTC
Észak-északnyugati szél 9 kt
Hőmérséklet 30°C
Páratartalom 49%
Légköri nyomás 1008 hPa

METAR: FDUS 241300Z AUTO 34009KT //// // ////// 30/18 Q1008

Idő: 16:03 (14:03 UTC)


TAF: hiányzik

Meteorológiai megfigyelések és előrejelzések több, mint 4000 repülőtéren (METAR és TAF jelentéseket).

A térképen piros és sárga pontok jelzik az elérhető meteorológiai állomásokat.

Mozgassa az egeret a pont fölött, hogy megjelenjen az állomás neve.

Azután kattintson az időjárási megfigyelések és előrejelzések megtekintéséhez.

A térkép megváltoztatása: kattintson a fekete keresztel jelölt zöld gombra ráközelítéshez, a vonallal jelölt zöld gombra távolításhoz, vagy a zöld nyilakra a szomszédos térképek eléréséhez.


METAR-TAF: